Time;durP1;ratioP1;P1;durP2;ratioP2;P2;SDS_P1;SDS_P2;PMS_P1;PMS_P2;Temp;Humidity;BMP_temperature;BMP_pressure;BME280_temperature;BME280_humidity;BME280_pressure;Samples;Min_cycle;Max_cycle;Signal;HPM_P1;HPM_P2
2022/01/19 00:01:24;;;;;;;21.38;11.77;;;4.10;92.60;;;;;;5028567;28;20140;-86
2022/01/19 00:03:53;;;;;;;21.00;10.98;;;4.10;92.50;;;;;;5017981;28;20037;-85
2022/01/19 00:06:21;;;;;;;21.35;12.48;;;4.10;92.60;;;;;;5028605;28;20551;-85
2022/01/19 00:08:50;;;;;;;19.20;10.95;;;4.10;92.60;;;;;;5031548;28;20464;-85
2022/01/19 00:11:20;;;;;;;22.77;11.48;;;4.10;92.60;;;;;;5030281;28;20025;-86
2022/01/19 00:13:45;;;;;;;20.67;11.43;;;4.20;92.70;;;;;;5031052;28;20500;-86
2022/01/19 00:16:11;;;;;;;26.27;13.20;;;4.10;92.80;;;;;;5026898;28;20021;-85
2022/01/19 00:18:36;;;;;;;26.05;13.07;;;4.10;92.80;;;;;;5027639;28;20022;-85
2022/01/19 00:21:02;;;;;;;23.70;12.82;;;4.10;92.80;;;;;;5026870;28;20033;-85
2022/01/19 00:23:28;;;;;;;26.80;13.05;;;4.10;92.80;;;;;;5031741;28;20065;-85
2022/01/19 00:25:55;;;;;;;25.58;12.80;;;4.10;92.80;;;;;;5024127;28;20030;-85
2022/01/19 00:28:21;;;;;;;23.23;11.93;;;4.10;92.80;;;;;;5026890;28;20037;-85
2022/01/19 00:30:47;;;;;;;27.88;11.20;;;4.10;92.80;;;;;;5028824;28;20033;-85
2022/01/19 00:33:13;;;;;;;25.13;12.45;;;4.10;92.70;;;;;;5025930;28;20033;-85
2022/01/19 00:35:40;;;;;;;23.05;12.63;;;4.10;92.80;;;;;;5024877;28;20476;-85
2022/01/19 00:38:11;;;;;;;25.40;12.23;;;4.10;92.90;;;;;;5030393;28;20448;-85
2022/01/19 00:40:42;;;;;;;24.25;12.57;;;4.10;93.00;;;;;;5029610;28;20029;-85
2022/01/19 00:43:07;;;;;;;24.00;12.50;;;4.10;92.90;;;;;;5029222;28;20049;-85
2022/01/19 00:45:34;;;;;;;24.42;12.48;;;4.10;92.80;;;;;;5028835;28;20083;-85
2022/01/19 00:47:59;;;;;;;26.08;12.43;;;4.10;92.80;;;;;;5021998;28;20048;-85
2022/01/19 00:50:27;;;;;;;28.52;13.13;;;4.10;92.90;;;;;;5027080;28;20022;-85
2022/01/19 00:52:53;;;;;;;28.17;13.52;;;4.10;93.00;;;;;;5029920;28;20362;-86
2022/01/19 00:55:24;;;;;;;25.77;13.25;;;4.10;92.90;;;;;;5021235;28;20032;-85
2022/01/19 00:57:57;;;;;;;20.77;11.82;;;4.10;92.80;;;;;;5036136;28;20052;-85
2022/01/19 01:00:28;;;;;;;25.70;12.65;;;4.00;92.70;;;;;;5028684;28;20049;-85
2022/01/19 01:02:54;;;;;;;25.38;12.68;;;4.00;92.70;;;;;;5031657;28;20453;-85
2022/01/19 01:05:21;;;;;;;23.80;12.43;;;4.10;92.90;;;;;;5027582;28;20041;-85
2022/01/19 01:07:47;;;;;;;23.45;11.85;;;4.00;93.00;;;;;;5013984;28;20140;-85
2022/01/19 01:10:19;;;;;;;29.08;12.73;;;4.10;93.00;;;;;;5015562;28;20038;-85
2022/01/19 01:12:50;;;;;;;31.55;12.50;;;4.00;93.00;;;;;;5020103;28;20074;-85
2022/01/19 01:15:36;;;;;;;28.05;11.75;;;4.00;93.20;;;;;;5035371;28;20029;-85
2022/01/19 01:20:39;;;;;;;24.65;11.50;;;4.00;93.20;;;;;;5026343;28;20033;-86
2022/01/19 01:23:07;;;;;;;26.50;11.85;;;4.00;93.20;;;;;;5025260;28;20149;-85
2022/01/19 01:25:32;;;;;;;28.35;12.70;;;4.00;93.30;;;;;;5017338;28;20033;-85
2022/01/19 01:27:58;;;;;;;27.73;13.13;;;4.00;93.40;;;;;;5025123;28;20033;-85
2022/01/19 01:30:23;;;;;;;29.90;13.38;;;4.00;93.40;;;;;;5022426;28;20033;-85
2022/01/19 01:32:49;;;;;;;25.38;12.10;;;4.00;93.50;;;;;;5025087;28;20028;-85
2022/01/19 01:35:15;;;;;;;30.27;12.30;;;4.00;93.50;;;;;;5024678;28;20048;-85
2022/01/19 01:37:43;;;;;;;28.40;13.13;;;4.00;93.50;;;;;;5029022;28;20429;-85
2022/01/19 01:40:13;;;;;;;26.15;11.80;;;4.00;93.60;;;;;;5028921;28;20026;-85
2022/01/19 01:42:39;;;;;;;31.92;12.15;;;3.90;93.70;;;;;;5022473;28;20042;-85
2022/01/19 01:45:10;;;;;;;33.42;13.20;;;3.90;93.70;;;;;;5018624;28;20030;-85
2022/01/19 01:47:41;;;;;;;24.42;11.32;;;4.00;93.70;;;;;;5021076;28;20022;-85
2022/01/19 01:55:21;;;;;;;27.45;12.18;;;3.90;94.00;;;;;;5027699;28;20099;-85
2022/01/19 01:57:47;;;;;;;29.33;12.27;;;3.90;94.00;;;;;;5025789;28;20136;-85
2022/01/19 02:00:17;;;;;;;23.75;11.75;;;3.90;94.00;;;;;;5014911;28;20073;-85
2022/01/19 02:02:45;;;;;;;29.17;12.07;;;3.90;94.00;;;;;;5025015;28;20168;-85
2022/01/19 02:05:13;;;;;;;26.58;11.18;;;3.80;94.00;;;;;;5026786;28;20029;-85
2022/01/19 02:16:09;;;;;;;36.13;12.68;;;3.90;94.00;;;;;;5015049;28;20032;-85
2022/01/19 02:21:38;;;;;;;29.30;12.15;;;3.90;94.20;;;;;;5030140;28;20099;-85
2022/01/19 02:24:06;;;;;;;34.92;11.43;;;3.80;94.20;;;;;;5045116;28;20032;-85
2022/01/19 02:42:38;;;;;;;36.78;13.05;;;3.70;94.40;;;;;;5023831;28;20170;-85
2022/01/19 02:50:16;;;;;;;30.27;14.07;;;3.70;94.40;;;;;;5018520;28;20060;-85
2022/01/19 02:52:41;;;;;;;33.17;13.40;;;3.70;94.50;;;;;;5028850;28;20029;-85
2022/01/19 02:55:07;;;;;;;32.90;13.93;;;3.70;94.60;;;;;;5020469;28;20036;-85
2022/01/19 02:57:35;;;;;;;28.42;12.30;;;3.60;94.50;;;;;;5038571;28;20025;-85
2022/01/19 03:06:31;;;;;;;34.38;14.50;;;3.60;94.60;;;;;;5028063;28;20125;-85
2022/01/19 03:08:41;;;;;;;27.38;13.13;;;3.60;94.70;;;;;;5034741;28;20095;-85
2022/01/19 03:11:00;;;;;;;33.70;13.43;;;3.60;94.90;;;;;;5032614;28;20504;-85
2022/01/19 03:13:26;;;;;;;33.50;14.52;;;3.60;94.90;;;;;;5033046;28;20129;-85
2022/01/19 03:15:52;;;;;;;31.08;13.43;;;3.60;94.90;;;;;;5011576;28;20112;-86
2022/01/19 03:18:17;;;;;;;28.77;12.68;;;3.60;94.80;;;;;;5026221;28;20017;-85
2022/01/19 03:20:43;;;;;;;29.30;12.68;;;3.60;94.80;;;;;;5016050;28;20084;-85
2022/01/19 03:23:18;;;;;;;27.02;12.13;;;3.60;94.80;;;;;;5016283;28;20084;-85
2022/01/19 03:25:47;;;;;;;29.70;12.57;;;3.50;94.80;;;;;;5025524;28;20540;-85
2022/01/19 03:28:14;;;;;;;32.70;12.88;;;3.60;94.90;;;;;;5026469;28;20056;-85
2022/01/19 03:30:39;;;;;;;26.35;12.40;;;3.50;94.90;;;;;;5030615;28;20396;-85
2022/01/19 03:33:05;;;;;;;32.35;13.10;;;3.50;94.90;;;;;;5025407;28;20037;-85
2022/01/19 03:35:31;;;;;;;29.05;12.75;;;3.50;95.00;;;;;;5031882;28;20414;-85
2022/01/19 03:37:56;;;;;;;22.90;11.55;;;3.50;94.90;;;;;;5020390;28;20044;-85
2022/01/19 03:40:22;;;;;;;32.53;12.45;;;3.50;95.00;;;;;;5029574;28;20417;-85
2022/01/19 03:42:55;;;;;;;30.90;11.85;;;3.50;94.90;;;;;;5019658;28;20538;-85
2022/01/19 03:45:24;;;;;;;25.58;12.80;;;3.50;95.00;;;;;;5029334;28;20040;-85
2022/01/19 03:48:06;;;;;;;27.63;12.00;;;3.40;95.00;;;;;;5029649;28;20037;-85
2022/01/19 03:50:34;;;;;;;34.30;14.20;;;3.40;95.10;;;;;;5028189;28;20044;-85
2022/01/19 03:53:02;;;;;;;32.10;12.80;;;3.40;95.10;;;;;;5023325;28;20507;-85
2022/01/19 03:55:28;;;;;;;33.40;13.27;;;3.50;95.20;;;;;;5031356;28;20482;-85
2022/01/19 03:58:01;;;;;;;30.40;13.40;;;3.40;95.20;;;;;;5029909;28;20026;-85
2022/01/19 04:00:31;;;;;;;29.08;12.90;;;3.40;95.30;;;;;;5024598;28;20506;-85
2022/01/19 04:02:56;;;;;;;26.20;12.30;;;3.40;95.30;;;;;;5031082;28;20040;-85
2022/01/19 04:05:41;;;;;;;31.17;13.55;;;3.40;95.30;;;;;;5029280;28;20029;-85
2022/01/19 04:08:07;;;;;;;26.40;11.57;;;3.40;95.30;;;;;;5032106;28;20029;-85
2022/01/19 04:10:39;;;;;;;27.80;12.00;;;3.40;95.20;;;;;;5027194;28;20039;-85
2022/01/19 04:13:56;;;;;;;29.30;13.25;;;3.40;95.20;;;;;;5029714;28;20046;-85
2022/01/19 04:15:59;;;;;;;21.70;12.07;;;3.40;95.30;;;;;;5026131;28;20055;-85
2022/01/19 04:18:25;;;;;;;32.88;12.65;;;3.40;95.20;;;;;;5026786;28;20521;-85
2022/01/19 04:20:52;;;;;;;24.00;12.65;;;3.40;95.20;;;;;;5031443;28;20072;-85
2022/01/19 04:23:27;;;;;;;35.30;12.82;;;3.40;95.20;;;;;;5022792;28;20033;-85
2022/01/19 04:25:55;;;;;;;27.67;12.57;;;3.40;95.20;;;;;;5023565;28;20448;-85
2022/01/19 04:28:22;;;;;;;26.48;11.48;;;3.40;95.20;;;;;;5030161;28;20041;-85
2022/01/19 04:30:51;;;;;;;29.60;12.88;;;3.40;95.20;;;;;;5026623;28;20034;-85
2022/01/19 04:33:22;;;;;;;32.00;12.85;;;3.50;95.20;;;;;;5022211;28;20033;-85
2022/01/19 04:35:53;;;;;;;29.60;13.70;;;3.40;95.20;;;;;;5018731;28;20405;-85
2022/01/19 04:54:08;;;;;;;30.38;14.13;;;3.40;94.90;;;;;;5032065;28;20080;-85
2022/01/19 05:03:27;;;;;;;46.17;19.90;;;3.50;94.80;;;;;;5020709;28;20048;-85
2022/01/19 05:06:16;;;;;;;43.25;20.35;;;3.50;94.80;;;;;;5020416;28;20026;-85
2022/01/19 05:08:52;;;;;;;48.15;21.77;;;3.50;94.70;;;;;;5027329;28;20044;-85
2022/01/19 05:14:02;;;;;;;54.03;24.13;;;3.50;94.70;;;;;;5031930;28;20099;-85
2022/01/19 05:16:27;;;;;;;53.13;23.95;;;3.40;94.70;;;;;;5029845;28;20432;-85
2022/01/19 05:18:53;;;;;;;52.13;21.10;;;3.20;94.70;;;;;;5021290;28;20026;-87
2022/01/19 05:21:19;;;;;;;49.00;20.42;;;3.10;95.00;;;;;;5026141;28;20093;-84
2022/01/19 05:23:45;;;;;;;49.05;20.83;;;3.00;95.10;;;;;;5027945;28;20076;-84
2022/01/19 05:26:11;;;;;;;47.47;19.98;;;3.00;95.30;;;;;;5029309;28;20034;-84
2022/01/19 05:28:37;;;;;;;41.70;17.92;;;2.80;95.40;;;;;;5022184;28;20088;-84
2022/01/19 05:31:03;;;;;;;46.22;19.58;;;2.70;95.40;;;;;;5030367;28;20091;-85
2022/01/19 05:33:31;;;;;;;55.22;19.88;;;2.60;95.60;;;;;;5027134;28;20022;-84
2022/01/19 05:35:57;;;;;;;44.05;18.67;;;2.50;95.70;;;;;;5023706;28;20622;-85
2022/01/19 05:38:25;;;;;;;41.92;19.90;;;2.50;95.90;;;;;;5027581;28;20026;-85
2022/01/19 05:40:51;;;;;;;54.20;18.20;;;2.50;96.10;;;;;;5028636;28;20388;-85
2022/01/19 05:43:20;;;;;;;53.42;19.20;;;2.50;96.20;;;;;;5025806;28;20441;-85
2022/01/19 05:45:46;;;;;;;48.92;17.80;;;2.40;96.20;;;;;;5028784;28;20038;-84
2022/01/19 05:48:13;;;;;;;48.10;18.83;;;2.40;96.30;;;;;;5028705;28;20046;-84
2022/01/19 05:50:39;;;;;;;50.60;19.05;;;2.40;96.30;;;;;;5026750;28;20040;-85
2022/01/19 05:53:04;;;;;;;53.08;18.60;;;2.40;96.50;;;;;;5030044;28;20452;-83
2022/01/19 05:55:33;;;;;;;54.35;19.98;;;2.40;96.50;;;;;;5015040;28;20111;-85
2022/01/19 05:57:59;;;;;;;52.53;20.30;;;2.40;96.60;;;;;;5027421;28;20025;-83
2022/01/19 06:00:24;;;;;;;47.80;19.17;;;2.40;96.60;;;;;;5025925;28;20230;-84
2022/01/19 06:02:50;;;;;;;52.97;19.60;;;2.40;96.60;;;;;;5030633;28;20523;-84
2022/01/19 06:05:16;;;;;;;57.25;19.27;;;2.40;96.60;;;;;;5025308;28;20048;-84
2022/01/19 06:07:44;;;;;;;50.47;19.80;;;2.40;96.60;;;;;;5017379;28;20034;-84
2022/01/19 06:10:42;;;;;;;51.47;20.42;;;2.50;96.60;;;;;;5025901;28;20120;-84
2022/01/19 06:12:57;;;;;;;48.03;19.15;;;2.50;96.60;;;;;;5029319;28;20036;-84
2022/01/19 06:15:23;;;;;;;45.65;17.98;;;2.50;96.60;;;;;;5027810;28;20029;-84
2022/01/19 06:17:49;;;;;;;50.45;18.85;;;2.60;96.70;;;;;;5027233;28;20500;-84
2022/01/19 06:20:14;;;;;;;43.97;18.33;;;2.60;96.60;;;;;;5035598;28;20039;-84
2022/01/19 06:22:40;;;;;;;45.10;18.55;;;2.60;96.60;;;;;;5032267;28;20563;-84
2022/01/19 06:25:06;;;;;;;44.15;19.02;;;2.70;96.60;;;;;;5021664;28;20431;-84
2022/01/19 06:27:32;;;;;;;45.90;18.73;;;2.70;96.50;;;;;;5023730;28;20026;-85
2022/01/19 06:29:57;;;;;;;49.20;19.00;;;2.70;96.50;;;;;;5024816;28;20025;-85
2022/01/19 06:32:23;;;;;;;50.72;18.77;;;2.80;96.40;;;;;;5017231;28;20029;-85
2022/01/19 06:34:48;;;;;;;44.55;18.48;;;2.70;96.30;;;;;;5019560;28;20025;-84
2022/01/19 06:37:14;;;;;;;52.97;18.17;;;2.70;96.30;;;;;;5027699;28;20133;-85
2022/01/19 06:39:39;;;;;;;48.17;20.30;;;2.60;96.20;;;;;;5027023;28;20035;-85
2022/01/19 06:42:05;;;;;;;42.88;18.58;;;2.50;96.20;;;;;;5023905;28;20029;-85
2022/01/19 06:44:31;;;;;;;47.15;19.45;;;2.40;96.30;;;;;;5023997;28;20059;-85
2022/01/19 06:46:56;;;;;;;43.95;19.40;;;2.30;96.30;;;;;;5023189;28;20091;-84
2022/01/19 06:49:22;;;;;;;48.45;19.58;;;2.20;96.50;;;;;;5027554;28;20029;-84
2022/01/19 06:51:47;;;;;;;50.97;19.15;;;2.10;96.40;;;;;;5025896;28;22364;-84
2022/01/19 06:54:13;;;;;;;53.45;19.35;;;2.10;96.60;;;;;;5024268;28;20040;-84
2022/01/19 06:56:39;;;;;;;56.75;20.73;;;2.10;96.60;;;;;;5029085;28;20037;-84
2022/01/19 06:59:05;;;;;;;58.10;21.40;;;2.00;96.80;;;;;;5027767;28;20328;-84
2022/01/19 07:01:32;;;;;;;58.42;23.35;;;2.10;96.90;;;;;;5027193;28;20037;-84
2022/01/19 07:03:59;;;;;;;60.95;24.20;;;2.00;96.80;;;;;;5026125;28;20124;-84
2022/01/19 07:06:24;;;;;;;61.17;22.88;;;2.00;97.00;;;;;;5021918;28;20033;-84
2022/01/19 07:08:50;;;;;;;68.72;24.30;;;2.00;96.90;;;;;;5028512;28;20072;-84
2022/01/19 07:11:18;;;;;;;67.63;23.33;;;1.90;96.90;;;;;;5030911;28;20028;-85
2022/01/19 07:13:43;;;;;;;65.03;23.08;;;1.90;97.00;;;;;;5020362;28;20046;-84
2022/01/19 07:16:09;;;;;;;72.43;23.63;;;1.90;97.00;;;;;;5019626;28;20033;-84
2022/01/19 07:18:34;;;;;;;80.00;25.33;;;1.90;97.20;;;;;;5015529;28;20033;-84
2022/01/19 07:21:00;;;;;;;82.50;25.17;;;1.90;97.20;;;;;;5026543;28;20048;-84
2022/01/19 07:23:25;;;;;;;66.72;25.70;;;1.80;97.20;;;;;;5028809;28;20034;-83
2022/01/19 07:25:51;;;;;;;92.72;25.50;;;1.80;97.20;;;;;;5029164;28;20069;-84
2022/01/19 07:28:16;;;;;;;82.18;25.80;;;1.70;97.20;;;;;;5029033;28;20033;-84
2022/01/19 07:30:42;;;;;;;92.07;25.30;;;1.70;97.20;;;;;;5023672;28;20381;-84
2022/01/19 07:33:08;;;;;;;104.85;27.98;;;1.70;97.30;;;;;;5022067;28;20022;-84
2022/01/19 07:35:33;;;;;;;89.10;25.25;;;1.70;97.30;;;;;;5022411;28;20026;-84
2022/01/19 07:37:59;;;;;;;90.28;28.38;;;1.70;97.30;;;;;;5027620;28;20032;-84
2022/01/19 07:40:25;;;;;;;87.13;25.92;;;1.70;97.40;;;;;;5021415;28;20041;-84
2022/01/19 07:42:51;;;;;;;91.00;25.67;;;1.70;97.40;;;;;;5025385;28;20496;-84
2022/01/19 07:45:17;;;;;;;109.40;28.30;;;1.80;97.40;;;;;;5029016;28;20038;-84
2022/01/19 07:47:43;;;;;;;89.40;27.10;;;1.80;97.40;;;;;;5023993;28;20030;-84
2022/01/19 07:50:09;;;;;;;97.30;28.05;;;1.80;97.40;;;;;;5030425;28;20026;-84
2022/01/19 07:52:35;;;;;;;106.57;27.50;;;1.90;97.40;;;;;;5023327;28;20466;-84
2022/01/19 07:55:01;;;;;;;95.10;27.33;;;1.90;97.40;;;;;;5030097;28;20026;-84
2022/01/19 07:57:27;;;;;;;89.53;27.13;;;2.00;97.40;;;;;;5045416;28;20033;-84
2022/01/19 07:59:53;;;;;;;99.05;27.30;;;2.00;97.40;;;;;;5031684;28;20078;-84
2022/01/19 08:02:19;;;;;;;100.88;28.20;;;2.10;97.40;;;;;;5032634;28;20498;-84
2022/01/19 08:04:44;;;;;;;91.78;28.77;;;2.10;97.50;;;;;;5026044;28;20022;-84
2022/01/19 08:07:10;;;;;;;92.63;27.45;;;2.10;97.40;;;;;;5024915;28;20150;-84
2022/01/19 08:09:35;;;;;;;87.78;26.65;;;2.10;97.40;;;;;;5023795;28;20034;-85
2022/01/19 08:12:02;;;;;;;83.03;27.25;;;2.10;97.40;;;;;;5028363;28;20026;-86
2022/01/19 08:14:29;;;;;;;90.40;28.33;;;2.20;97.40;;;;;;5024206;28;20508;-84
2022/01/19 08:16:55;;;;;;;80.43;26.48;;;2.20;97.30;;;;;;5019821;28;20076;-85
2022/01/19 08:19:21;;;;;;;81.00;27.80;;;2.20;97.30;;;;;;5031751;28;20061;-85
2022/01/19 08:21:47;;;;;;;81.78;28.02;;;2.20;97.30;;;;;;5028922;28;20299;-84
2022/01/19 08:24:13;;;;;;;74.60;27.67;;;2.20;97.30;;;;;;5031255;28;20027;-84
2022/01/19 08:26:38;;;;;;;79.40;27.05;;;2.20;97.30;;;;;;5030120;28;20370;-84
2022/01/19 08:29:06;;;;;;;85.50;28.10;;;2.20;97.30;;;;;;5022136;28;20117;-84
2022/01/19 08:31:33;;;;;;;80.68;27.63;;;2.30;97.30;;;;;;5026033;28;20362;-86
2022/01/19 08:33:59;;;;;;;62.67;26.02;;;2.30;97.30;;;;;;5027565;28;20105;-85
2022/01/19 08:36:26;;;;;;;72.85;26.95;;;2.30;97.20;;;;;;5031185;28;20040;-85
2022/01/19 08:38:51;;;;;;;79.05;27.42;;;2.20;97.20;;;;;;5018818;28;20048;-86
2022/01/19 08:41:17;;;;;;;81.25;27.88;;;2.30;97.20;;;;;;5016006;28;20041;-86
2022/01/19 08:43:42;;;;;;;80.63;27.58;;;2.40;97.30;;;;;;5030086;28;20025;-86
2022/01/19 08:46:08;;;;;;;76.50;27.10;;;2.30;97.20;;;;;;5022263;28;20120;-85
2022/01/19 08:48:34;;;;;;;72.47;26.92;;;2.30;97.20;;;;;;5031190;28;20485;-85
2022/01/19 08:50:59;;;;;;;59.50;26.20;;;2.30;97.10;;;;;;5031626;28;20030;-85
2022/01/19 08:53:25;;;;;;;75.85;27.50;;;2.30;97.10;;;;;;5031957;28;20551;-86
2022/01/19 08:55:51;;;;;;;72.07;26.40;;;2.30;97.10;;;;;;5030555;28;20029;-86
2022/01/19 08:58:16;;;;;;;71.35;26.45;;;2.30;97.10;;;;;;5026468;28;20034;-86
2022/01/19 09:00:44;;;;;;;72.78;27.65;;;2.40;97.10;;;;;;5030673;28;20112;-86
2022/01/19 09:03:10;;;;;;;75.72;27.15;;;2.40;97.10;;;;;;5023406;28;20025;-86
2022/01/19 09:05:36;;;;;;;71.57;27.67;;;2.40;97.00;;;;;;5030897;28;20044;-86
2022/01/19 09:08:02;;;;;;;72.90;28.25;;;2.40;97.00;;;;;;5030452;28;20034;-86
2022/01/19 09:10:28;;;;;;;66.40;27.42;;;2.40;97.00;;;;;;5027267;28;20061;-86
2022/01/19 09:12:53;;;;;;;70.85;29.38;;;2.40;97.00;;;;;;5017281;28;20037;-86
2022/01/19 09:15:19;;;;;;;68.40;26.58;;;2.40;97.00;;;;;;5029165;28;20029;-86
2022/01/19 09:17:45;;;;;;;67.03;26.85;;;2.40;96.90;;;;;;5026090;28;20032;-86
2022/01/19 09:20:12;;;;;;;74.97;25.90;;;2.50;96.80;;;;;;5031731;28;20041;-86
2022/01/19 09:22:38;;;;;;;65.18;26.63;;;2.50;96.80;;;;;;5027072;28;20033;-86
2022/01/19 09:25:05;;;;;;;65.38;27.17;;;2.50;96.80;;;;;;5027033;28;20036;-86
2022/01/19 09:27:31;;;;;;;64.75;26.40;;;2.50;96.60;;;;;;5028115;28;20032;-86
2022/01/19 09:29:56;;;;;;;55.33;25.98;;;2.60;96.70;;;;;;5028715;28;20041;-86
2022/01/19 09:32:22;;;;;;;60.53;25.25;;;2.60;96.60;;;;;;5017882;28;20358;-86
2022/01/19 09:34:54;;;;;;;66.78;27.67;;;2.60;96.40;;;;;;5027055;28;20544;-86
2022/01/19 09:37:22;;;;;;;64.07;26.90;;;2.60;96.40;;;;;;5025363;28;20087;-86
2022/01/19 09:39:48;;;;;;;60.15;25.42;;;2.70;96.40;;;;;;5012050;28;20026;-86
2022/01/19 09:42:14;;;;;;;52.47;22.75;;;2.80;96.20;;;;;;5016420;28;20496;-86
2022/01/19 09:44:40;;;;;;;61.08;25.80;;;2.80;96.00;;;;;;5021911;28;20038;-86
2022/01/19 09:47:06;;;;;;;56.78;24.83;;;2.70;95.90;;;;;;5030781;28;20519;-86
2022/01/19 09:49:32;;;;;;;55.05;22.60;;;2.80;95.80;;;;;;5022447;28;20034;-86
2022/01/19 09:52:00;;;;;;;54.47;23.55;;;2.70;95.70;;;;;;5015643;28;20036;-86
2022/01/19 09:54:29;;;;;;;50.70;21.50;;;2.80;95.70;;;;;;5028657;28;20045;-86
2022/01/19 09:56:55;;;;;;;53.83;22.40;;;2.80;95.70;;;;;;5030158;28;20083;-86
2022/01/19 09:59:22;;;;;;;50.75;19.38;;;2.80;95.60;;;;;;5016286;28;20072;-86
2022/01/19 10:01:53;;;;;;;50.00;21.83;;;2.70;95.50;;;;;;5024879;28;20029;-86
2022/01/19 10:04:27;;;;;;;49.22;20.23;;;2.80;95.60;;;;;;5021171;28;20080;-86
2022/01/19 10:07:15;;;;;;;43.80;19.95;;;2.80;95.40;;;;;;5037017;28;20029;-86
2022/01/19 10:09:58;;;;;;;41.45;20.20;;;2.80;95.40;;;;;;5015066;28;20092;-86
2022/01/19 10:18:23;;;;;;;44.58;20.95;;;2.80;95.10;;;;;;5026894;28;20048;-86
2022/01/19 10:21:06;;;;;;;42.92;21.98;;;2.80;95.00;;;;;;5026692;28;20029;-86
2022/01/19 10:23:40;;;;;;;44.60;23.33;;;2.90;95.00;;;;;;5023968;28;20495;-86
2022/01/19 10:26:08;;;;;;;46.03;21.60;;;2.90;94.80;;;;;;5018232;28;20429;-86
2022/01/19 10:28:54;;;;;;;41.25;21.00;;;2.90;94.70;;;;;;5026383;28;20033;-86
2022/01/19 10:31:22;;;;;;;38.30;21.33;;;2.90;94.60;;;;;;5024293;28;20037;-86
2022/01/19 10:34:09;;;;;;;43.13;22.20;;;2.90;94.40;;;;;;5028518;28;20484;-86
2022/01/19 10:36:52;;;;;;;42.42;21.70;;;2.90;94.50;;;;;;5021298;28;20436;-87
2022/01/19 10:39:23;;;;;;;43.70;21.13;;;2.90;94.40;;;;;;5028439;28;20030;-86
2022/01/19 10:42:07;;;;;;;40.70;22.02;;;2.90;94.50;;;;;;5018429;28;20022;-87
2022/01/19 10:44:46;;;;;;;45.00;22.42;;;2.80;94.60;;;;;;5024127;28;20053;-86
2022/01/19 10:47:12;;;;;;;41.92;21.58;;;2.80;94.60;;;;;;5020629;28;20030;-86
2022/01/19 10:49:50;;;;;;;43.78;22.10;;;2.80;94.60;;;;;;5028600;28;20361;-86
2022/01/19 10:52:36;;;;;;;35.83;20.50;;;2.90;94.60;;;;;;5030465;28;20431;-87
2022/01/19 10:55:05;;;;;;;41.20;21.17;;;2.80;94.30;;;;;;5024043;28;20030;-88
2022/01/19 10:57:33;;;;;;;35.53;20.13;;;2.80;94.30;;;;;;5026569;28;20025;-88
2022/01/19 11:00:21;;;;;;;38.03;20.13;;;2.80;94.10;;;;;;5026255;28;20033;-87
2022/01/19 11:02:49;;;;;;;41.15;23.05;;;2.80;94.10;;;;;;5014140;28;20460;-87
2022/01/19 11:05:35;;;;;;;39.78;20.85;;;2.90;93.90;;;;;;5023115;28;20099;-87
2022/01/19 11:08:00;;;;;;;39.65;20.73;;;2.80;93.60;;;;;;5022280;28;20053;-84
2022/01/19 11:10:26;;;;;;;44.65;23.60;;;2.80;93.50;;;;;;5025510;28;20523;-85
2022/01/19 11:12:55;;;;;;;39.00;23.17;;;2.80;93.60;;;;;;5025130;28;20025;-85
2022/01/19 11:15:21;;;;;;;37.20;20.80;;;2.90;93.70;;;;;;5024775;28;20445;-85
2022/01/19 11:17:48;;;;;;;37.17;21.30;;;2.90;93.70;;;;;;5027307;28;20175;-85
2022/01/19 11:20:19;;;;;;;41.45;24.23;;;2.90;93.80;;;;;;5031363;28;20423;-85
2022/01/19 11:23:11;;;;;;;47.00;23.85;;;2.90;93.80;;;;;;5029052;28;20065;-85
2022/01/19 11:25:56;;;;;;;43.28;22.52;;;2.80;93.70;;;;;;5024729;28;20119;-85
2022/01/19 11:28:27;;;;;;;45.13;23.42;;;2.90;93.90;;;;;;5023830;28;20029;-85
2022/01/19 11:30:54;;;;;;;40.30;23.42;;;2.80;93.90;;;;;;5022636;28;20040;-85
2022/01/19 11:33:29;;;;;;;37.40;21.63;;;2.90;93.90;;;;;;5025565;28;20025;-85
2022/01/19 11:36:16;;;;;;;38.50;22.85;;;2.90;93.90;;;;;;5025001;28;20022;-85
2022/01/19 11:38:44;;;;;;;41.83;24.20;;;2.90;93.90;;;;;;5029143;28;20097;-85
2022/01/19 11:41:10;;;;;;;42.65;24.45;;;2.90;94.00;;;;;;5031568;28;20036;-84
2022/01/19 11:43:39;;;;;;;38.03;21.02;;;2.90;93.90;;;;;;5030245;28;20022;-86
2022/01/19 11:46:24;;;;;;;45.35;24.13;;;2.90;93.90;;;;;;5027012;28;20026;-85
2022/01/19 11:48:50;;;;;;;47.83;25.80;;;2.90;94.10;;;;;;5032015;28;20037;-86
2022/01/19 11:51:29;;;;;;;45.78;23.98;;;2.90;94.00;;;;;;5030138;28;20049;-85
2022/01/19 11:54:18;;;;;;;48.03;24.15;;;2.90;94.20;;;;;;5023651;28;20503;-85
2022/01/19 11:57:13;;;;;;;45.85;24.58;;;2.90;94.10;;;;;;5028072;28;20032;-84
2022/01/19 11:59:47;;;;;;;41.55;22.83;;;2.90;94.30;;;;;;5014879;28;20037;-83
2022/01/19 12:02:23;;;;;;;42.67;23.83;;;2.90;94.20;;;;;;5027795;28;20128;-86
2022/01/19 12:04:52;;;;;;;37.30;23.05;;;2.90;94.30;;;;;;5029641;28;20028;-85
2022/01/19 12:07:40;;;;;;;52.17;25.25;;;2.90;94.30;;;;;;5021461;28;20033;-85
2022/01/19 12:10:22;;;;;;;34.70;20.02;;;2.90;94.40;;;;;;5024823;28;20025;-85
2022/01/19 12:13:26;;;;;;;48.72;23.48;;;2.90;94.40;;;;;;5029661;28;20033;-84
2022/01/19 12:16:19;;;;;;;45.03;23.67;;;2.90;94.60;;;;;;5030081;28;20017;-85
2022/01/19 12:18:49;;;;;;;51.00;26.25;;;2.90;94.70;;;;;;5033871;28;20436;-85
2022/01/19 12:21:37;;;;;;;46.17;24.83;;;2.90;94.70;;;;;;5025813;28;20029;-85
2022/01/19 12:24:30;;;;;;;46.75;25.45;;;2.90;94.60;;;;;;5030786;28;20436;-84
2022/01/19 12:26:55;;;;;;;50.75;25.48;;;2.90;94.70;;;;;;5030321;28;20488;-85
2022/01/19 12:29:33;;;;;;;49.83;23.92;;;2.90;94.70;;;;;;5020769;28;20350;-85
2022/01/19 12:32:00;;;;;;;41.85;25.08;;;2.90;94.70;;;;;;5023673;28;20029;-85
2022/01/19 12:34:38;;;;;;;44.15;25.63;;;2.90;94.70;;;;;;5032513;28;20026;-85
2022/01/19 12:37:04;;;;;;;43.25;24.00;;;2.90;94.70;;;;;;5027732;28;20075;-85
2022/01/19 12:39:29;;;;;;;45.45;24.83;;;2.90;94.60;;;;;;5031141;28;20025;-84
2022/01/19 12:42:18;;;;;;;44.78;25.63;;;3.00;94.70;;;;;;5027086;28;20112;-85
2022/01/19 12:44:44;;;;;;;53.03;26.98;;;3.00;94.70;;;;;;5039926;28;20033;-85
2022/01/19 12:47:24;;;;;;;50.88;25.60;;;3.00;94.70;;;;;;5020200;28;20037;-85
2022/01/19 12:49:58;;;;;;;45.60;25.85;;;3.00;94.60;;;;;;5021518;28;20029;-85
2022/01/19 12:52:30;;;;;;;44.60;26.15;;;3.00;94.60;;;;;;5045306;28;20049;-85
2022/01/19 12:55:00;;;;;;;46.28;25.20;;;3.00;94.50;;;;;;5030797;28;20021;-85
2022/01/19 12:57:29;;;;;;;46.05;24.65;;;3.10;94.50;;;;;;5029760;28;20037;-85
2022/01/19 12:59:55;;;;;;;39.38;24.23;;;3.10;94.30;;;;;;5023372;28;20030;-85
2022/01/19 13:02:28;;;;;;;39.05;21.90;;;3.10;94.20;;;;;;5012866;28;20378;-85
2022/01/19 13:05:04;;;;;;;46.83;23.77;;;3.10;93.80;;;;;;5020228;28;20122;-85
2022/01/19 13:07:31;;;;;;;47.25;25.23;;;3.10;93.70;;;;;;5031112;28;20036;-85
2022/01/19 13:10:39;;;;;;;44.25;24.48;;;3.20;93.70;;;;;;5027023;28;20468;-85
2022/01/19 13:13:18;;;;;;;43.28;24.30;;;3.20;93.60;;;;;;5029421;28;20073;-85
2022/01/19 13:15:51;;;;;;;43.72;25.80;;;3.20;93.50;;;;;;5023428;28;20037;-83
2022/01/19 13:18:34;;;;;;;45.92;25.30;;;3.20;93.50;;;;;;5021414;28;20036;-83
2022/01/19 13:21:07;;;;;;;42.15;25.00;;;3.20;93.50;;;;;;5037993;28;20091;-82
2022/01/19 13:23:36;;;;;;;48.05;26.35;;;3.30;93.30;;;;;;5026578;28;20055;-83
2022/01/19 13:26:05;;;;;;;47.45;25.52;;;3.30;93.30;;;;;;5023480;28;20489;-83
2022/01/19 13:28:33;;;;;;;42.42;25.90;;;3.30;93.20;;;;;;5030718;28;21181;-83
2022/01/19 13:31:18;;;;;;;50.38;27.65;;;3.40;93.00;;;;;;5029957;28;20096;-83
2022/01/19 13:33:55;;;;;;;47.90;26.02;;;3.40;92.90;;;;;;5030035;28;20022;-83
2022/01/19 13:36:26;;;;;;;46.28;24.73;;;3.40;92.80;;;;;;5025772;28;20030;-83
2022/01/19 13:38:53;;;;;;;48.08;27.08;;;3.50;92.40;;;;;;5030108;28;20031;-83
2022/01/19 13:41:19;;;;;;;48.38;27.38;;;3.60;92.30;;;;;;5025551;28;20091;-83
2022/01/19 13:43:44;;;;;;;43.88;23.85;;;3.60;92.20;;;;;;5022664;28;20029;-84
2022/01/19 13:46:14;;;;;;;45.00;27.23;;;3.60;92.20;;;;;;5028730;28;20493;-83
2022/01/19 13:48:43;;;;;;;45.35;27.00;;;3.60;92.00;;;;;;5016010;28;20345;-83
2022/01/19 13:51:10;;;;;;;47.03;27.20;;;3.60;92.00;;;;;;5016147;28;20022;-83
2022/01/19 13:53:42;;;;;;;40.17;23.77;;;3.60;92.00;;;;;;5026307;28;20017;-83
2022/01/19 13:56:11;;;;;;;50.35;28.85;;;3.60;92.20;;;;;;5025966;28;20048;-83
2022/01/19 13:58:47;;;;;;;48.95;28.17;;;3.60;92.20;;;;;;5028311;28;20034;-83
2022/01/19 14:01:20;;;;;;;51.72;29.00;;;3.70;92.20;;;;;;5012277;28;20069;-84
2022/01/19 14:03:45;;;;;;;51.75;28.48;;;3.70;92.30;;;;;;5031546;28;20029;-83
2022/01/19 14:06:36;;;;;;;48.60;28.00;;;3.70;92.30;;;;;;5017111;28;20033;-83